This is the latest recevied weather packets stored in our database for station/object K5OLV. If no packets are shown the sender has not sent any weather packets the latest 10 day(s).
| Time | Temp. | Humidity | Pressure | Rain* | Wind** | Luminosity | Snow |
|---|---|---|---|---|---|---|---|
| 1777936427 | 21.11° C | 55% | 1011.1 hPa | 0 mm | - | 54 W/m² | - |
| 1777936123 | 21.11° C | 55% | 1011.2 hPa | 0 mm | - | 65 W/m² | - |
| 1777935821 | 21.11° C | 55% | 1011.2 hPa | 0 mm | - | 72 W/m² | - |
| 1777935520 | 21.11° C | 53% | 1011 hPa | 0 mm | - | 78 W/m² | - |
| 1777935215 | 21.67° C | 52% | 1011 hPa | 0 mm | - | 82 W/m² | - |
| 1777934913 | 21.11° C | 51% | 1011.1 hPa | 0 mm | - | 73 W/m² | - |
| 1777934610 | 21.11° C | 50% | 1011.1 hPa | 0 mm | - | 58 W/m² | - |
| 1777934307 | 21.11° C | 52% | 1011 hPa | 0 mm | - | 57 W/m² | - |
| 1777934002 | 21.67° C | 53% | 1011.2 hPa | 0 mm | - | 71 W/m² | - |
| 1777933699 | 21.67° C | 53% | 1011.2 hPa | 0 mm | - | 108 W/m² | - |
| 1777933396 | 21.67° C | 54% | 1011.2 hPa | 0 mm | - | 77 W/m² | - |
| 1777933094 | 21.67° C | 53% | 1011.1 hPa | 0 mm | - | 199 W/m² | - |
| 1777932790 | 22.22° C | 51% | 1011.3 hPa | 0 mm | - | 158 W/m² | - |
| 1777932487 | 22.22° C | 51% | 1011.2 hPa | 0 mm | - | 159 W/m² | - |
| 1777932184 | 22.22° C | 50% | 1010.9 hPa | 0 mm | - | 176 W/m² | - |
| 1777931882 | 22.78° C | 49% | 1011.1 hPa | 0 mm | - | 172 W/m² | - |
| 1777931578 | 23.33° C | 51% | 1011.2 hPa | 0 mm | - | 299 W/m² | - |
| 1777931274 | 22.78° C | 48% | 1011.1 hPa | 0 mm | - | 286 W/m² | - |
| 1777930970 | 22.78° C | 48% | 1011.2 hPa | 0 mm | - | 290 W/m² | - |
| 1777930667 | 23.33° C | 54% | 1010.9 hPa | 0 mm | - | 321 W/m² | - |
| 1777930363 | 23.89° C | 50% | 1011.2 hPa | 0 mm | - | 344 W/m² | - |
| 1777930061 | 23.33° C | 54% | 1011 hPa | 0 mm | - | 364 W/m² | - |
| 1777929757 | 23.33° C | 49% | 1011.1 hPa | 0 mm | - | 458 W/m² | - |
| 1777929455 | 23.33° C | 54% | 1011 hPa | 0 mm | - | 347 W/m² | - |
| 1777929151 | 23.89° C | 50% | 1011.2 hPa | 0 mm | - | 286 W/m² | - |
* Rain latest hour (hover to see other rain measurements)
** Current wind speed in m/s (hover to see current wind gust speed)